Time,TemperatureF,DewpointF,PressureIn,WindDirection,WindDirectionDegrees,WindSpeedMPH,WindSpeedGustMPH,Humidity,HourlyPrecipIn,Conditions,Clouds,dailyrainin,SoftwareType,DateUTC
2013-01-30 00:02:00,12.0,18.0,17.73,SW,215,0.0,0.0,23,-99.99,,,-99.99,meteohub,2013-01-30 07:02:00,
2013-01-30 00:11:00,11.7,17.4,17.73,SW,215,0.0,0.0,22,-99.99,,,-99.99,meteohub,2013-01-30 07:11:00,
2013-01-30 00:16:00,11.7,17.4,17.73,SW,215,0.0,0.0,22,-99.99,,,-99.99,meteohub,2013-01-30 07:16:00,
2013-01-30 00:21:00,11.5,17.2,17.73,SW,215,0.0,0.0,22,-99.99,,,-99.99,meteohub,2013-01-30 07:21:00,
2013-01-30 00:27:00,11.7,18.1,17.73,SW,215,0.0,0.0,23,-99.99,,,-99.99,meteohub,2013-01-30 07:27:00,
2013-01-30 00:32:00,11.7,18.0,17.73,SW,215,0.0,0.0,23,-99.99,,,-99.99,meteohub,2013-01-30 07:32:00,
2013-01-30 00:37:00,11.7,18.0,17.73,SW,215,0.0,0.0,23,-99.99,,,-99.99,meteohub,2013-01-30 07:37:00,
2013-01-30 00:42:00,11.8,17.6,17.73,SW,215,0.0,0.0,22,-99.99,,,-99.99,meteohub,2013-01-30 07:42:00,
2013-01-30 00:48:00,11.8,17.4,17.73,SW,215,0.0,0.0,22,-99.99,,,-99.99,meteohub,2013-01-30 07:48:00,
2013-01-30 00:53:00,12.0,17.2,17.73,SW,215,0.0,0.0,22,-99.99,,,-99.99,meteohub,2013-01-30 07:53:00,
2013-01-30 00:58:00,12.0,18.1,17.73,SW,215,0.0,0.0,23,-99.99,,,-99.99,meteohub,2013-01-30 07:58:00,
2013-01-30 01:05:00,12.2,18.0,17.73,SW,215,0.0,0.0,23,-99.99,,,-99.99,meteohub,2013-01-30 08:05:00,
2013-01-30 01:10:00,12.6,17.2,17.73,SW,215,0.0,0.0,22,-99.99,,,-99.99,meteohub,2013-01-30 08:10:00,
2013-01-30 01:16:00,12.7,17.6,17.73,SW,215,0.0,0.0,22,-99.99,,,-99.99,meteohub,2013-01-30 08:16:00,
2013-01-30 01:22:00,12.7,17.2,17.73,SW,215,0.0,0.0,22,-99.99,,,-99.99,meteohub,2013-01-30 08:22:00,
2013-01-30 01:23:00,12.7,17.2,17.73,SW,215,0.0,0.0,22,-99.99,,,-99.99,meteohub,2013-01-30 08:23:00,
2013-01-30 01:32:00,13.1,18.0,17.73,SW,215,0.0,0.0,23,-99.99,,,-99.99,meteohub,2013-01-30 08:32:00,
2013-01-30 01:39:00,12.9,17.2,17.73,SW,215,0.0,0.0,22,-99.99,,,-99.99,meteohub,2013-01-30 08:39:00,
2013-01-30 01:48:00,12.9,17.6,17.73,SW,215,0.0,0.0,22,-99.99,,,-99.99,meteohub,2013-01-30 08:48:00,
2013-01-30 01:54:00,12.7,17.2,17.73,SW,215,0.0,0.0,22,-99.99,,,-99.99,meteohub,2013-01-30 08:54:00,
2013-01-30 01:59:00,12.6,18.1,17.73,SW,215,0.0,0.0,23,-99.99,,,-99.99,meteohub,2013-01-30 08:59:00,
2013-01-30 02:04:00,12.6,18.0,17.73,SW,215,0.0,0.0,23,-99.99,,,-99.99,meteohub,2013-01-30 09:04:00,
2013-01-30 02:10:00,12.6,17.2,17.73,SW,215,0.0,0.0,22,-99.99,,,-99.99,meteohub,2013-01-30 09:10:00,
2013-01-30 02:18:00,12.4,17.6,17.73,SW,215,0.0,0.0,22,-99.99,,,-99.99,meteohub,2013-01-30 09:18:00,
2013-01-30 02:26:00,12.6,17.2,17.73,SW,215,0.0,0.0,22,-99.99,,,-99.99,meteohub,2013-01-30 09:26:00,
2013-01-30 02:35:00,12.6,18.0,17.73,SW,215,0.0,0.0,23,-99.99,,,-99.99,meteohub,2013-01-30 09:35:00,
2013-01-30 02:40:00,12.6,17.2,17.73,SW,215,0.0,0.0,22,-99.99,,,-99.99,meteohub,2013-01-30 09:40:00,
2013-01-30 02:46:00,12.6,17.6,17.73,SW,215,0.0,0.0,22,-99.99,,,-99.99,meteohub,2013-01-30 09:46:00,
2013-01-30 02:51:00,12.6,17.4,17.73,SW,215,0.0,0.0,22,-99.99,,,-99.99,meteohub,2013-01-30 09:51:00,
2013-01-30 02:56:00,12.6,17.2,17.73,SW,215,0.0,0.0,22,-99.99,,,-99.99,meteohub,2013-01-30 09:56:00,
2013-01-30 03:01:00,12.6,18.1,17.73,SW,215,0.0,0.0,23,-99.99,,,-99.99,meteohub,2013-01-30 10:01:00,
2013-01-30 03:09:00,12.6,18.0,17.73,SW,215,0.0,0.0,23,-99.99,,,-99.99,meteohub,2013-01-30 10:09:00,
2013-01-30 03:14:00,12.4,17.4,17.73,SW,215,0.0,0.0,22,-99.99,,,-99.99,meteohub,2013-01-30 10:14:00,
2013-01-30 03:19:00,12.2,17.4,17.73,SW,215,0.0,0.0,22,-99.99,,,-99.99,meteohub,2013-01-30 10:19:00,
2013-01-30 03:25:00,12.2,17.2,17.73,SW,215,0.0,0.0,22,-99.99,,,-99.99,meteohub,2013-01-30 10:25:00,
2013-01-30 03:31:00,12.4,18.1,17.73,SW,215,0.0,0.0,23,-99.99,,,-99.99,meteohub,2013-01-30 10:31:00,
2013-01-30 03:36:00,12.4,18.0,17.73,SW,215,0.0,0.0,23,-99.99,,,-99.99,meteohub,2013-01-30 10:36:00,
2013-01-30 03:41:00,12.6,17.2,17.73,SW,215,0.0,0.0,22,-99.99,,,-99.99,meteohub,2013-01-30 10:41:00,
2013-01-30 03:47:00,12.6,17.6,17.73,SW,215,0.0,0.0,22,-99.99,,,-99.99,meteohub,2013-01-30 10:47:00,
2013-01-30 03:52:00,12.4,17.4,17.73,SW,215,0.0,0.0,22,-99.99,,,-99.99,meteohub,2013-01-30 10:52:00,
2013-01-30 03:57:00,12.4,17.2,17.73,SW,215,0.0,0.0,22,-99.99,,,-99.99,meteohub,2013-01-30 10:57:00,
2013-01-30 04:03:00,12.6,18.1,17.73,SW,215,0.0,0.0,23,-99.99,,,-99.99,meteohub,2013-01-30 11:03:00,
2013-01-30 04:08:00,12.6,18.0,17.73,SW,215,0.0,0.0,23,-99.99,,,-99.99,meteohub,2013-01-30 11:08:00,
2013-01-30 04:13:00,12.6,17.2,17.73,SW,215,0.0,0.0,22,-99.99,,,-99.99,meteohub,2013-01-30 11:13:00,
2013-01-30 04:18:00,12.6,17.4,17.73,SW,215,0.0,0.0,22,-99.99,,,-99.99,meteohub,2013-01-30 11:18:00,
2013-01-30 04:24:00,12.6,17.2,17.73,SW,215,0.0,0.0,22,-99.99,,,-99.99,meteohub,2013-01-30 11:24:00,
2013-01-30 04:29:00,12.7,18.1,17.73,SW,215,0.0,0.0,23,-99.99,,,-99.99,meteohub,2013-01-30 11:29:00,
2013-01-30 04:45:00,13.1,17.6,17.73,SW,215,0.0,0.0,22,-99.99,,,-99.99,meteohub,2013-01-30 11:45:00,
2013-01-30 04:50:00,13.3,17.4,17.73,SW,215,0.0,0.0,22,-99.99,,,-99.99,meteohub,2013-01-30 11:50:00,
2013-01-30 04:51:00,13.3,17.4,17.73,SW,215,0.0,0.0,22,-99.99,,,-99.99,meteohub,2013-01-30 11:51:00,
2013-01-30 05:13:00,13.3,17.2,17.73,SW,215,0.0,0.0,22,-99.99,,,-99.99,meteohub,2013-01-30 12:13:00,
2013-01-30 05:14:00,13.3,17.4,17.73,SW,215,0.0,0.0,22,-99.99,,,-99.99,meteohub,2013-01-30 12:14:00,
2013-01-30 05:27:00,13.5,17.2,17.73,SW,215,0.0,0.0,22,-99.99,,,-99.99,meteohub,2013-01-30 12:27:00,
2013-01-30 05:34:00,13.5,18.0,17.73,SW,215,0.0,0.0,23,-99.99,,,-99.99,meteohub,2013-01-30 12:34:00,
2013-01-30 05:43:00,13.5,18.0,17.73,SW,215,0.0,0.0,23,-99.99,,,-99.99,meteohub,2013-01-30 12:43:00,
2013-01-30 06:09:00,13.8,18.0,17.73,SW,215,0.0,0.0,23,-99.99,,,-99.99,meteohub,2013-01-30 13:09:00,
2013-01-30 06:17:00,13.8,17.6,17.73,SW,215,0.0,0.0,22,-99.99,,,-99.99,meteohub,2013-01-30 13:17:00,
2013-01-30 06:31:00,14.0,17.2,17.73,SW,215,0.0,0.0,22,-99.99,,,-99.99,meteohub,2013-01-30 13:31:00,
2013-01-30 06:41:00,14.2,18.1,17.73,SW,215,0.0,0.0,23,-99.99,,,-99.99,meteohub,2013-01-30 13:41:00,
2013-01-30 06:47:00,14.0,17.6,17.73,SW,215,0.0,0.0,22,-99.99,,,-99.99,meteohub,2013-01-30 13:47:00,
2013-01-30 07:37:00,14.7,18.0,17.73,SW,215,0.0,0.0,23,-99.99,,,-99.99,meteohub,2013-01-30 14:37:00,
2013-01-30 23:02:00,26.4,17.2,17.73,SW,215,6.0,10.0,22,-99.99,,,-99.99,meteohub,2013-01-31 06:02:00,
2013-01-30 23:03:00,26.4,17.2,17.73,SW,215,6.0,10.0,22,-99.99,,,-99.99,meteohub,2013-01-31 06:03:00,
2013-01-30 23:06:00,26.8,17.2,17.73,SW,215,6.0,10.0,22,-99.99,,,-99.99,meteohub,2013-01-31 06:06:00,
2013-01-30 23:18:00,26.1,17.2,17.73,SW,215,4.0,11.0,22,-99.99,,,-99.99,meteohub,2013-01-31 06:18:00,
2013-01-30 23:20:00,25.9,17.6,17.73,SW,215,4.0,11.0,22,-99.99,,,-99.99,meteohub,2013-01-31 06:20:00,
2013-01-30 23:28:00,25.7,17.6,17.73,SW,215,5.0,9.0,22,-99.99,,,-99.99,meteohub,2013-01-31 06:28:00,
2013-01-30 23:45:00,23.7,18.1,17.73,SW,215,3.0,5.0,23,-99.99,,,-99.99,meteohub,2013-01-31 06:45:00,
2013-01-30 23:52:00,24.1,18.1,17.73,SW,215,6.0,6.0,23,-99.99,,,-99.99,meteohub,2013-01-31 06:52:00,
2013-01-30 23:57:00,23.7,17.6,17.73,SW,215,5.0,8.0,22,-99.99,,,-99.99,meteohub,2013-01-31 06:57:00,